Time;durP1;ratioP1;P1;durP2;ratioP2;P2;SDS_P1;SDS_P2;PMS_P1;PMS_P2;Temp;Humidity;BMP_temperature;BMP_pressure;BME280_temperature;BME280_humidity;BME280_pressure;Samples;Min_cycle;Max_cycle;Signal;HPM_P1;HPM_P2
2021/06/24 00:02:01;;;;;;;;;;;15.60;99.90;;;;;;4894961;29;19942;-79
2021/06/24 00:04:30;;;;;;;;;;;15.50;99.90;;;;;;4895297;29;20717;-79
2021/06/24 00:06:59;;;;;;;;;;;15.50;99.90;;;;;;4895255;29;20017;-78
2021/06/24 00:09:26;;;;;;;;;;;15.40;99.90;;;;;;4895002;29;19928;-78
2021/06/24 00:11:56;;;;;;;;;;;15.30;99.90;;;;;;4894812;29;19928;-78
2021/06/24 00:14:24;;;;;;;;;;;15.30;99.90;;;;;;4894990;29;19936;-78
2021/06/24 00:16:52;;;;;;;;;;;15.30;99.90;;;;;;4894883;29;19927;-78
2021/06/24 00:19:21;;;;;;;;;;;15.30;99.90;;;;;;4895211;29;19927;-78
2021/06/24 00:21:50;;;;;;;;;;;15.20;99.90;;;;;;4910025;29;19962;-79
2021/06/24 00:24:23;;;;;;;;;;;15.30;99.90;;;;;;4894946;29;19963;-78
2021/06/24 00:26:51;;;;;;;;;;;15.30;99.90;;;;;;4894909;29;19989;-78
2021/06/24 00:29:22;;;;;;;;;;;15.20;99.90;;;;;;4895086;29;19933;-78
2021/06/24 00:31:50;;;;;;;;;;;15.20;99.90;;;;;;4894527;29;19935;-78
2021/06/24 00:34:19;;;;;;;;;;;15.20;99.90;;;;;;4894848;29;19986;-78
2021/06/24 00:36:48;;;;;;;;;;;15.20;99.90;;;;;;4910464;29;19927;-78
2021/06/24 00:39:17;;;;;;;;;;;15.10;99.90;;;;;;4894802;29;19962;-78
2021/06/24 00:41:45;;;;;;;;;;;15.10;99.90;;;;;;4894558;29;20022;-78
2021/06/24 00:44:18;;;;;;;;;;;15.20;99.90;;;;;;4880108;29;19927;-78
2021/06/24 00:46:52;;;;;;;;;;;15.10;99.90;;;;;;4894575;29;19928;-79
2021/06/24 00:49:20;;;;;;;;;;;15.10;99.90;;;;;;4879667;29;20310;-78
2021/06/24 00:51:49;;;;;;;;;;;15.10;99.90;;;;;;4897766;29;19933;-78
2021/06/24 00:54:17;;;;;;;;;;;15.10;99.90;;;;;;4898458;29;19935;-78
2021/06/24 00:56:47;;;;;;;;;;;15.00;99.90;;;;;;4898732;29;19934;-78
2021/06/24 00:59:17;;;;;;;;;;;15.10;99.90;;;;;;4883442;29;19966;-78
2021/06/24 01:01:49;;;;;;;;;;;15.20;99.90;;;;;;4898244;29;19928;-78
2021/06/24 01:04:23;;;;;;;;;;;15.10;99.90;;;;;;4882916;29;19928;-78
2021/06/24 01:06:55;;;;;;;;;;;15.10;99.90;;;;;;4899055;29;20030;-79
2021/06/24 01:09:25;;;;;;;;;;;15.10;99.90;;;;;;4899001;29;19935;-78
2021/06/24 01:11:56;;;;;;;;;;;15.00;99.90;;;;;;4899163;29;20018;-78
2021/06/24 01:14:24;;;;;;;;;;;15.00;99.90;;;;;;4899074;29;19950;-79
2021/06/24 01:16:53;;;;;;;;;;;15.00;99.90;;;;;;4898911;29;19927;-78
2021/06/24 01:19:21;;;;;;;;;;;15.00;99.90;;;;;;4899169;29;19984;-78
2021/06/24 01:21:49;;;;;;;;;;;15.00;99.90;;;;;;4898748;29;20454;-77
2021/06/24 01:24:22;;;;;;;;;;;15.00;99.90;;;;;;4895709;29;19928;-78
2021/06/24 01:26:51;;;;;;;;;;;15.00;99.90;;;;;;4878096;29;19996;-78
2021/06/24 01:29:19;;;;;;;;;;;15.10;99.90;;;;;;4879608;29;19928;-78
2021/06/24 01:31:47;;;;;;;;;;;15.10;99.90;;;;;;4864748;29;20403;-79
2021/06/24 01:34:17;;;;;;;;;;;15.00;99.90;;;;;;4864894;29;19935;-78
2021/06/24 01:36:46;;;;;;;;;;;15.00;99.90;;;;;;4864966;29;19934;-78
2021/06/24 01:39:14;;;;;;;;;;;15.00;99.90;;;;;;4864871;29;19956;-78
2021/06/24 01:41:42;;;;;;;;;;;14.90;99.90;;;;;;4864397;29;20450;-79
2021/06/24 01:44:26;;;;;;;;;;;14.90;99.90;;;;;;4880169;29;19928;-78
2021/06/24 01:46:59;;;;;;;;;;;14.90;99.90;;;;;;4879971;29;19928;-78
2021/06/24 01:49:27;;;;;;;;;;;14.90;99.90;;;;;;4864465;29;19935;-78
2021/06/24 01:52:00;;;;;;;;;;;15.00;99.90;;;;;;4879597;29;19934;-78
2021/06/24 01:54:33;;;;;;;;;;;14.90;99.90;;;;;;4879686;29;19950;-78
2021/06/24 01:57:06;;;;;;;;;;;14.90;99.90;;;;;;4879960;29;20465;-79
2021/06/24 01:59:38;;;;;;;;;;;14.90;99.90;;;;;;4865352;29;19935;-78
2021/06/24 02:02:11;;;;;;;;;;;14.90;99.90;;;;;;4878968;29;20018;-78
2021/06/24 02:04:51;;;;;;;;;;;14.90;99.90;;;;;;4879439;29;19928;-78
2021/06/24 02:07:29;;;;;;;;;;;14.90;99.90;;;;;;4879524;29;19928;-78
2021/06/24 02:10:32;;;;;;;;;;;14.90;99.90;;;;;;4876125;29;20036;-78
2021/06/24 02:13:01;;;;;;;;;;;14.80;99.90;;;;;;4879189;29;19932;-78
2021/06/24 02:15:29;;;;;;;;;;;14.70;99.90;;;;;;4864423;29;20403;-77
2021/06/24 02:17:57;;;;;;;;;;;14.70;99.90;;;;;;4878983;29;20406;-78
2021/06/24 02:20:36;;;;;;;;;;;14.70;99.90;;;;;;4879393;29;19932;-79
2021/06/24 02:23:16;;;;;;;;;;;14.60;99.90;;;;;;4865383;29;20395;-78
2021/06/24 02:25:56;;;;;;;;;;;14.50;99.90;;;;;;4879409;29;20018;-79
2021/06/24 02:28:34;;;;;;;;;;;14.50;99.90;;;;;;4865270;29;20352;-79
2021/06/24 02:31:13;;;;;;;;;;;14.50;99.90;;;;;;4879130;29;20379;-78
2021/06/24 02:33:41;;;;;;;;;;;14.60;99.90;;;;;;4879200;29;19928;-78
2021/06/24 02:36:37;;;;;;;;;;;14.60;99.90;;;;;;4879285;29;19927;-78
2021/06/24 02:39:07;;;;;;;;;;;14.70;99.90;;;;;;4864180;29;20351;-78
2021/06/24 02:41:37;;;;;;;;;;;14.70;99.90;;;;;;4864056;29;19975;-78
2021/06/24 02:44:10;;;;;;;;;;;14.80;99.90;;;;;;4878890;29;20015;-78
2021/06/24 02:46:41;;;;;;;;;;;14.90;99.90;;;;;;4878965;29;20407;-77
2021/06/24 02:49:09;;;;;;;;;;;14.90;99.90;;;;;;4879050;29;20391;-78
2021/06/24 02:51:52;;;;;;;;;;;15.00;99.90;;;;;;4878709;29;19927;-78
2021/06/24 02:54:21;;;;;;;;;;;15.00;99.90;;;;;;4910049;29;19949;-77
2021/06/24 02:56:57;;;;;;;;;;;15.00;99.90;;;;;;4897728;29;19929;-78
2021/06/24 02:59:45;;;;;;;;;;;15.00;99.90;;;;;;4881252;29;19934;-79
2021/06/24 03:02:14;;;;;;;;;;;15.10;99.90;;;;;;4865227;29;19934;-78
2021/06/24 03:04:43;;;;;;;;;;;15.00;99.90;;;;;;4878793;29;19934;-79
2021/06/24 03:07:12;;;;;;;;;;;15.00;99.90;;;;;;4878357;29;19935;-78
2021/06/24 03:10:00;;;;;;;;;;;15.00;99.90;;;;;;4878678;29;20386;-79
2021/06/24 03:12:34;;;;;;;;;;;15.00;99.90;;;;;;4878201;29;19927;-78
2021/06/24 03:15:04;;;;;;;;;;;14.90;99.90;;;;;;4879600;29;19967;-78
2021/06/24 03:17:32;;;;;;;;;;;14.90;99.90;;;;;;4878134;29;19928;-78
2021/06/24 03:20:06;;;;;;;;;;;14.90;99.90;;;;;;4879968;29;20314;-78
2021/06/24 03:22:34;;;;;;;;;;;14.80;99.90;;;;;;4878056;29;19935;-78
2021/06/24 03:25:03;;;;;;;;;;;14.80;99.90;;;;;;4862933;29;19928;-79
2021/06/24 03:27:33;;;;;;;;;;;14.80;99.90;;;;;;4894023;29;19979;-78
2021/06/24 03:30:26;;;;;;;;;;;14.80;99.90;;;;;;4866040;29;19928;-78
2021/06/24 03:32:59;;;;;;;;;;;14.80;99.90;;;;;;4877844;29;19952;-79
2021/06/24 03:35:27;;;;;;;;;;;14.80;99.90;;;;;;4862912;29;20307;-78
2021/06/24 03:37:56;;;;;;;;;;;14.80;99.90;;;;;;4862905;29;19931;-78
2021/06/24 03:40:28;;;;;;;;;;;14.80;99.90;;;;;;4878104;29;19928;-78
2021/06/24 03:43:04;;;;;;;;;;;14.80;99.90;;;;;;4877747;29;19928;-79
2021/06/24 03:45:32;;;;;;;;;;;14.70;99.90;;;;;;4878024;29;19928;-78
2021/06/24 03:48:02;;;;;;;;;;;14.70;99.90;;;;;;4877898;29;19928;-78
2021/06/24 03:50:32;;;;;;;;;;;14.70;99.90;;;;;;4862539;29;19928;-78
2021/06/24 03:53:00;;;;;;;;;;;14.70;99.90;;;;;;4876972;29;19927;-78
2021/06/24 03:55:44;;;;;;;;;;;14.70;99.90;;;;;;4908351;29;19936;-78
2021/06/24 03:58:34;;;;;;;;;;;14.70;99.90;;;;;;4876402;29;19928;-78
2021/06/24 04:01:02;;;;;;;;;;;14.70;99.90;;;;;;4861450;29;19950;-78
2021/06/24 04:03:29;;;;;;;;;;;14.80;99.90;;;;;;4862125;29;19934;-79
2021/06/24 04:06:04;;;;;;;;;;;14.80;99.90;;;;;;4877170;29;20019;-77
2021/06/24 04:08:37;;;;;;;;;;;14.80;99.90;;;;;;4876571;29;20391;-79
2021/06/24 04:11:15;;;;;;;;;;;14.90;99.90;;;;;;4865720;29;19931;-79
2021/06/24 04:13:49;;;;;;;;;;;14.90;99.90;;;;;;4876705;29;20307;-79
2021/06/24 04:16:47;;;;;;;;;;;15.00;99.90;;;;;;4888902;29;19935;-79
2021/06/24 04:19:16;;;;;;;;;;;15.00;99.90;;;;;;4895233;29;19931;-79
2021/06/24 04:21:47;;;;;;;;;;;15.00;99.90;;;;;;4895012;29;19927;-78
2021/06/24 04:24:17;;;;;;;;;;;15.00;99.90;;;;;;4911266;29;20351;-79
2021/06/24 04:26:45;;;;;;;;;;;15.00;99.90;;;;;;4880172;29;19938;-79
2021/06/24 04:29:18;;;;;;;;;;;15.00;99.90;;;;;;4895772;29;19960;-78
2021/06/24 04:31:47;;;;;;;;;;;15.10;99.90;;;;;;4879627;29;20026;-79
2021/06/24 04:34:15;;;;;;;;;;;15.20;99.90;;;;;;4895773;29;19928;-78
2021/06/24 04:37:07;;;;;;;;;;;15.20;99.90;;;;;;4895574;29;20176;-79
2021/06/24 04:39:36;;;;;;;;;;;15.20;99.90;;;;;;4880266;29;19928;-78
2021/06/24 04:42:04;;;;;;;;;;;15.20;99.90;;;;;;4895340;29;20344;-79
2021/06/24 04:44:39;;;;;;;;;;;15.20;99.90;;;;;;4895828;29;19932;-78
2021/06/24 04:47:11;;;;;;;;;;;15.30;99.90;;;;;;4895759;29;20379;-79
2021/06/24 04:49:38;;;;;;;;;;;15.30;99.90;;;;;;4880342;29;19928;-80
2021/06/24 04:52:10;;;;;;;;;;;15.30;99.90;;;;;;4893657;29;19931;-79
2021/06/24 04:55:05;;;;;;;;;;;15.40;99.90;;;;;;4896406;29;19942;-79
2021/06/24 04:57:37;;;;;;;;;;;15.40;99.90;;;;;;4895865;29;19931;-78
2021/06/24 05:00:24;;;;;;;;;;;15.40;99.90;;;;;;4877762;29;19934;-79
2021/06/24 05:03:10;;;;;;;;;;;15.40;99.90;;;;;;4890393;29;19935;-79
2021/06/24 05:05:58;;;;;;;;;;;15.40;99.90;;;;;;4877264;29;19974;-79
2021/06/24 05:08:28;;;;;;;;;;;15.40;99.90;;;;;;4876858;29;19928;-78
2021/06/24 05:11:00;;;;;;;;;;;15.40;99.90;;;;;;4876799;29;19928;-77
2021/06/24 05:13:28;;;;;;;;;;;15.50;99.90;;;;;;4861552;29;19932;-79
2021/06/24 05:15:57;;;;;;;;;;;15.50;99.90;;;;;;4896771;29;19936;-79
2021/06/24 05:18:25;;;;;;;;;;;15.50;99.90;;;;;;4876134;29;19967;-78
2021/06/24 05:20:54;;;;;;;;;;;15.60;99.90;;;;;;4876614;29;19966;-79
2021/06/24 05:23:22;;;;;;;;;;;15.70;99.90;;;;;;4861220;29;19935;-78
2021/06/24 05:25:49;;;;;;;;;;;15.70;99.90;;;;;;4892403;29;19935;-78
2021/06/24 05:28:16;;;;;;;;;;;15.80;99.90;;;;;;4891754;29;19928;-78
2021/06/24 05:30:45;;;;;;;;;;;15.90;99.90;;;;;;4881946;29;20019;-78
2021/06/24 05:33:14;;;;;;;;;;;16.00;99.90;;;;;;4894755;29;19940;-79
2021/06/24 05:35:46;;;;;;;;;;;16.10;99.90;;;;;;4894964;29;19927;-79
2021/06/24 05:38:15;;;;;;;;;;;16.20;99.90;;;;;;4897902;29;19999;-78
2021/06/24 05:40:44;;;;;;;;;;;16.20;99.90;;;;;;4883534;29;19958;-79
2021/06/24 05:43:13;;;;;;;;;;;16.20;99.90;;;;;;4898685;29;19998;-79
2021/06/24 05:45:40;;;;;;;;;;;16.20;99.90;;;;;;4898533;29;19932;-78
2021/06/24 05:48:08;;;;;;;;;;;16.20;99.90;;;;;;4898542;29;20023;-78
2021/06/24 05:50:37;;;;;;;;;;;16.20;99.90;;;;;;4899136;29;19934;-78
2021/06/24 05:53:11;;;;;;;;;;;16.10;99.90;;;;;;4899015;29;19934;-78
2021/06/24 05:55:52;;;;;;;;;;;16.20;99.90;;;;;;4898694;29;19962;-78
2021/06/24 05:58:21;;;;;;;;;;;16.30;99.90;;;;;;4883632;29;20626;-79
2021/06/24 06:00:49;;;;;;;;;;;16.40;99.90;;;;;;4897253;29;20189;-79
2021/06/24 06:03:22;;;;;;;;;;;16.50;99.90;;;;;;4895962;29;19928;-75
2021/06/24 06:05:49;;;;;;;;;;;16.50;99.90;;;;;;4882036;29;19950;-75
2021/06/24 06:08:16;;;;;;;;;;;16.60;99.90;;;;;;4882061;29;20018;-75
2021/06/24 06:10:43;;;;;;;;;;;16.60;99.90;;;;;;4880693;29;20058;-78
2021/06/24 06:13:12;;;;;;;;;;;16.60;99.90;;;;;;4897154;29;19928;-78
2021/06/24 06:15:42;;;;;;;;;;;16.60;99.90;;;;;;4905530;29;20324;-78
2021/06/24 06:18:11;;;;;;;;;;;16.70;99.90;;;;;;4913648;29;19927;-79
2021/06/24 06:20:39;;;;;;;;;;;16.70;99.90;;;;;;4898875;29;20478;-79
2021/06/24 06:23:07;;;;;;;;;;;16.60;99.90;;;;;;4886531;29;19934;-78
2021/06/24 06:25:40;;;;;;;;;;;16.70;99.90;;;;;;4899776;29;19950;-79
2021/06/24 06:28:08;;;;;;;;;;;16.80;99.90;;;;;;4899314;29;19955;-79
2021/06/24 06:30:36;;;;;;;;;;;16.80;99.90;;;;;;4898446;29;19927;-78
2021/06/24 06:33:04;;;;;;;;;;;16.80;99.90;;;;;;4894790;29;19975;-79
2021/06/24 06:35:32;;;;;;;;;;;16.80;99.90;;;;;;4897642;29;20447;-78
2021/06/24 06:38:00;;;;;;;;;;;16.80;99.90;;;;;;4897776;29;19939;-78
2021/06/24 06:40:28;;;;;;;;;;;16.80;99.90;;;;;;4898316;29;19938;-79
2021/06/24 06:42:57;;;;;;;;;;;16.90;99.90;;;;;;4898053;29;20371;-78
2021/06/24 06:45:27;;;;;;;;;;;16.90;99.90;;;;;;4901247;29;19979;-78
2021/06/24 06:47:55;;;;;;;;;;;17.00;99.90;;;;;;4902226;29;20014;-78
2021/06/24 06:50:23;;;;;;;;;;;17.00;99.90;;;;;;4913249;29;19942;-79
2021/06/24 06:52:50;;;;;;;;;;;17.10;99.90;;;;;;4901630;29;19927;-79
2021/06/24 06:55:19;;;;;;;;;;;17.10;99.90;;;;;;4917181;29;20287;-78
2021/06/24 06:57:47;;;;;;;;;;;17.20;99.90;;;;;;4914393;29;20010;-78
2021/06/24 07:00:16;;;;;;;;;;;17.30;99.90;;;;;;4903018;29;19934;-78
2021/06/24 07:02:43;;;;;;;;;;;17.30;99.90;;;;;;4880954;29;19955;-78
2021/06/24 07:05:11;;;;;;;;;;;17.40;99.90;;;;;;4896899;29;19959;-78
2021/06/24 07:07:39;;;;;;;;;;;17.40;99.90;;;;;;4896892;29;19935;-78
2021/06/24 07:10:07;;;;;;;;;;;17.40;99.90;;;;;;4888740;29;19928;-79
2021/06/24 07:12:35;;;;;;;;;;;17.50;99.90;;;;;;4890126;29;20417;-78
2021/06/24 07:15:04;;;;;;;;;;;17.60;99.90;;;;;;4893118;29;20614;-79
2021/06/24 07:17:32;;;;;;;;;;;17.60;99.90;;;;;;4891003;29;19928;-79
2021/06/24 07:19:59;;;;;;;;;;;17.70;99.90;;;;;;4891377;29;19978;-78
2021/06/24 07:22:27;;;;;;;;;;;17.80;99.90;;;;;;4890676;29;19932;-79
2021/06/24 07:25:09;;;;;;;;;;;17.80;99.90;;;;;;4889520;29;19931;-78
2021/06/24 07:27:37;;;;;;;;;;;17.90;99.90;;;;;;4894165;29;20359;-79
2021/06/24 07:30:05;;;;;;;;;;;18.00;99.90;;;;;;4892368;29;20375;-79
2021/06/24 07:32:33;;;;;;;;;;;18.00;99.90;;;;;;4867531;29;19935;-78
2021/06/24 07:35:00;;;;;;;;;;;18.10;99.90;;;;;;4895871;29;19927;-79
2021/06/24 07:37:33;;;;;;;;;;;18.10;99.90;;;;;;4877516;29;20406;-78
2021/06/24 07:40:01;;;;;;;;;;;18.10;99.90;;;;;;4864003;29;20300;-78
2021/06/24 07:42:29;;;;;;;;;;;18.20;99.90;;;;;;4861462;29;19932;-78
2021/06/24 07:45:01;;;;;;;;;;;18.20;99.90;;;;;;4877037;29;19942;-78
2021/06/24 07:47:32;;;;;;;;;;;18.20;99.90;;;;;;4862575;29;19939;-77
2021/06/24 07:50:00;;;;;;;;;;;18.20;99.90;;;;;;4877538;29;19928;-78
2021/06/24 07:52:27;;;;;;;;;;;18.10;99.90;;;;;;4861968;29;19935;-78
2021/06/24 07:54:56;;;;;;;;;;;18.10;99.90;;;;;;4877313;29;20403;-78
2021/06/24 07:57:28;;;;;;;;;;;18.20;99.90;;;;;;4902526;29;19927;-78
2021/06/24 07:59:56;;;;;;;;;;;18.30;99.90;;;;;;4914021;29;19970;-78
2021/06/24 08:02:26;;;;;;;;;;;18.50;99.90;;;;;;4909916;29;19934;-79
2021/06/24 08:04:57;;;;;;;;;;;18.80;99.90;;;;;;4896485;29;19935;-79
2021/06/24 08:07:30;;;;;;;;;;;19.10;99.90;;;;;;4895815;29;19983;-78
2021/06/24 08:10:03;;;;;;;;;;;19.30;99.90;;;;;;4893973;29;19970;-78
2021/06/24 08:12:36;;;;;;;;;;;19.40;99.90;;;;;;4895260;29;19963;-78
2021/06/24 08:15:04;;;;;;;;;;;19.50;99.90;;;;;;4895896;29;20014;-80
2021/06/24 08:17:31;;;;;;;;;;;19.60;99.90;;;;;;4897586;29;20034;-80
2021/06/24 08:20:01;;;;;;;;;;;19.70;99.90;;;;;;4897557;29;22172;-80
2021/06/24 08:22:33;;;;;;;;;;;19.90;99.90;;;;;;4898171;29;19928;-80
2021/06/24 08:25:09;;;;;;;;;;;19.90;99.90;;;;;;4898212;29;19951;-80
2021/06/24 08:27:36;;;;;;;;;;;19.80;99.90;;;;;;4883030;29;19975;-80
2021/06/24 08:30:06;;;;;;;;;;;19.60;99.90;;;;;;4897830;29;19927;-80
2021/06/24 08:32:38;;;;;;;;;;;19.50;99.90;;;;;;4898244;29;19934;-80
2021/06/24 08:35:11;;;;;;;;;;;19.50;99.90;;;;;;4992879;23;19928;-80
2021/06/24 08:37:39;;;;;;;;;;;19.60;99.90;;;;;;4915746;29;19977;-77
2021/06/24 08:40:09;;;;;;;;;;;19.70;99.90;;;;;;4913884;29;19931;-77
2021/06/24 08:42:37;;;;;;;;;;;19.90;99.90;;;;;;4929429;29;19959;-77
2021/06/24 08:45:05;;;;;;;;;;;20.10;99.90;;;;;;4912041;29;19963;-77
2021/06/24 08:47:32;;;;;;;;;;;20.20;99.90;;;;;;4914234;29;19970;-77
2021/06/24 08:50:00;;;;;;;;;;;20.40;99.90;;;;;;4929825;29;19954;-77
2021/06/24 08:52:28;;;;;;;;;;;20.60;99.90;;;;;;4913722;29;19966;-77
2021/06/24 08:54:55;;;;;;;;;;;20.70;99.90;;;;;;4929955;29;19931;-77
2021/06/24 08:57:22;;;;;;;;;;;20.90;99.90;;;;;;4929189;29;19927;-77
2021/06/24 08:59:54;;;;;;;;;;;20.80;99.90;;;;;;4914919;29;20397;-77
2021/06/24 09:02:36;;;;;;;;;;;20.70;99.90;;;;;;4927887;29;19934;-77
2021/06/24 09:05:03;;;;;;;;;;;20.50;99.90;;;;;;4929576;29;19934;-77
2021/06/24 09:07:31;;;;;;;;;;;20.30;99.90;;;;;;4924875;29;19979;-78
2021/06/24 09:10:00;;;;;;;;;;;20.20;99.90;;;;;;4894817;29;19967;-77
2021/06/24 09:12:32;;;;;;;;;;;20.10;99.90;;;;;;4882885;29;19934;-77
2021/06/24 09:15:04;;;;;;;;;;;20.00;99.90;;;;;;4898808;29;19928;-77
2021/06/24 09:17:33;;;;;;;;;;;20.10;99.90;;;;;;4898912;29;19928;-77
2021/06/24 09:20:02;;;;;;;;;;;20.30;99.90;;;;;;4898427;29;19966;-77
2021/06/24 09:22:29;;;;;;;;;;;20.50;99.90;;;;;;4898245;29;19979;-77
2021/06/24 09:24:56;;;;;;;;;;;20.80;99.90;;;;;;4883052;29;19927;-77
2021/06/24 09:27:28;;;;;;;;;;;21.00;99.90;;;;;;4883489;29;19928;-77
2021/06/24 09:30:09;;;;;;;;;;;21.10;99.90;;;;;;4898862;29;19938;-77
2021/06/24 09:32:37;;;;;;;;;;;21.20;99.90;;;;;;4904197;29;20325;-77
2021/06/24 09:35:06;;;;;;;;;;;21.30;99.90;;;;;;4931573;29;19927;-77
2021/06/24 09:38:09;;;;;;;;;;;21.60;99.90;;;;;;4918235;29;19935;-78
2021/06/24 09:40:42;;;;;;;;;;;21.70;99.90;;;;;;4831561;29;19934;-78
2021/06/24 09:43:36;;;;;;;;;;;21.50;99.90;;;;;;4893073;29;19928;-77
2021/06/24 09:46:07;;;;;;;;;;;21.40;99.90;;;;;;4912222;29;19931;-80
2021/06/24 09:48:36;;;;;;;;;;;21.20;99.90;;;;;;4939128;29;19934;-81
2021/06/24 09:54:17;;;;;;;;;;;21.20;99.90;;;;;;4935212;29;20413;-81
2021/06/24 09:56:46;;;;;;;;;;;21.60;99.90;;;;;;4935798;29;20055;-81
2021/06/24 09:59:18;;;;;;;;;;;21.90;99.90;;;;;;4920332;29;19927;-81
2021/06/24 10:01:50;;;;;;;;;;;22.10;99.90;;;;;;4904924;29;20402;-80
2021/06/24 10:04:22;;;;;;;;;;;22.30;99.90;;;;;;4904336;29;19951;-81
2021/06/24 10:06:51;;;;;;;;;;;22.40;99.90;;;;;;4919630;29;19982;-80
2021/06/24 10:09:19;;;;;;;;;;;22.60;99.90;;;;;;4905059;29;20326;-81
2021/06/24 10:11:47;;;;;;;;;;;22.50;99.90;;;;;;4920764;29;19927;-81
2021/06/24 10:14:16;;;;;;;;;;;22.50;99.90;;;;;;4919259;29;20350;-80
2021/06/24 10:16:45;;;;;;;;;;;22.60;99.90;;;;;;4918758;29;19927;-80
2021/06/24 10:19:15;;;;;;;;;;;22.70;99.90;;;;;;4918901;29;19966;-80
2021/06/24 10:21:47;;;;;;;;;;;22.80;99.90;;;;;;4934500;29;19971;-80
2021/06/24 10:24:17;;;;;;;;;;;22.90;99.90;;;;;;4917920;29;19927;-80
2021/06/24 10:26:47;;;;;;;;;;;22.80;99.90;;;;;;4918685;29;20488;-80
2021/06/24 10:29:16;;;;;;;;;;;22.50;99.90;;;;;;4919026;29;19966;-80
2021/06/24 10:31:45;;;;;;;;;;;22.30;99.90;;;;;;4919434;29;20310;-80
2021/06/24 10:34:14;;;;;;;;;;;22.00;99.90;;;;;;4903927;29;20317;-80
2021/06/24 10:37:11;;;;;;;;;;;21.90;99.90;;;;;;4905205;29;20022;-81
2021/06/24 10:39:41;;;;;;;;;;;21.80;99.90;;;;;;4896917;29;20470;-81
2021/06/24 10:42:14;;;;;;;;;;;21.70;99.90;;;;;;4904331;29;19950;-81
2021/06/24 10:44:47;;;;;;;;;;;21.70;99.90;;;;;;4904116;29;19927;-81
2021/06/24 10:47:25;;;;;;;;;;;21.60;99.90;;;;;;4916021;29;20000;-80
2021/06/24 10:50:16;;;;;;;;;;;21.70;99.90;;;;;;4904991;29;19927;-81
2021/06/24 10:52:43;;;;;;;;;;;21.90;99.90;;;;;;4916662;29;20025;-78
2021/06/24 10:55:30;;;;;;;;;;;22.10;99.90;;;;;;4916246;29;19934;-76
2021/06/24 10:58:03;;;;;;;;;;;22.30;99.90;;;;;;4931079;29;19927;-78
2021/06/24 11:00:34;;;;;;;;;;;22.40;99.90;;;;;;4915706;29;19935;-78
2021/06/24 11:03:02;;;;;;;;;;;22.40;99.90;;;;;;4909335;29;20398;-78
2021/06/24 11:05:34;;;;;;;;;;;22.40;99.90;;;;;;4916017;29;19927;-78
2021/06/24 11:08:11;;;;;;;;;;;22.30;99.90;;;;;;4916204;29;20035;-78
2021/06/24 11:10:53;;;;;;;;;;;22.20;99.90;;;;;;4931693;29;20009;-78
2021/06/24 11:13:41;;;;;;;;;;;22.20;99.90;;;;;;4931918;29;19927;-77
2021/06/24 11:16:15;;;;;;;;;;;22.40;99.90;;;;;;4916081;29;20390;-77
2021/06/24 11:18:47;;;;;;;;;;;22.50;99.90;;;;;;4915807;29;19934;-77
2021/06/24 11:21:21;;;;;;;;;;;22.50;99.90;;;;;;4913797;29;20042;-77
2021/06/24 11:23:49;;;;;;;;;;;22.70;99.90;;;;;;4927423;29;19927;-77
2021/06/24 11:26:18;;;;;;;;;;;22.80;99.90;;;;;;4899673;29;19955;-77
2021/06/24 11:31:16;;;;;;;;;;;22.60;99.90;;;;;;4897309;29;19935;-79
2021/06/24 11:33:57;;;;;;;;;;;22.30;99.90;;;;;;4912964;29;20331;-78
2021/06/24 11:36:23;;;;;;;;;;;22.40;99.90;;;;;;4900376;29;19931;-77
2021/06/24 11:38:55;;;;;;;;;;;22.30;99.90;;;;;;4916355;29;19927;-77
2021/06/24 11:41:22;;;;;;;;;;;22.40;99.90;;;;;;4900075;29;19927;-79
2021/06/24 11:44:05;;;;;;;;;;;22.50;99.90;;;;;;4916982;29;19979;-80
2021/06/24 11:46:36;;;;;;;;;;;22.70;99.90;;;;;;4898613;29;20403;-80
2021/06/24 12:01:32;;;;;;;;;;;23.70;99.90;;;;;;4932731;29;19927;-81
2021/06/24 12:03:24;;;;;;;;;;;23.90;99.90;;;;;;4927722;29;19931;-80
2021/06/24 12:05:52;;;;;;;;;;;24.00;99.90;;;;;;4916780;29;19962;-81
2021/06/24 12:08:24;;;;;;;;;;;24.10;99.90;;;;;;4916970;29;20022;-79
2021/06/24 12:11:25;;;;;;;;;;;24.20;99.90;;;;;;4916940;29;20372;-80
2021/06/24 12:13:52;;;;;;;;;;;24.20;99.90;;;;;;4860153;29;19970;-80
2021/06/24 12:16:25;;;;;;;;;;;24.20;99.90;;;;;;4933261;29;20013;-80
2021/06/24 12:18:52;;;;;;;;;;;24.20;99.90;;;;;;4917762;29;19979;-77
2021/06/24 12:21:24;;;;;;;;;;;24.00;99.90;;;;;;4916851;29;20398;-80
2021/06/24 12:23:51;;;;;;;;;;;23.80;99.90;;;;;;4936064;29;19949;-80
2021/06/24 12:26:20;;;;;;;;;;;23.70;99.90;;;;;;4931945;29;19927;-80
2021/06/24 12:29:00;;;;;;;;;;;23.70;99.90;;;;;;4916230;29;20014;-80
2021/06/24 12:31:32;;;;;;;;;;;23.40;99.90;;;;;;4916349;29;20456;-80
2021/06/24 12:34:04;;;;;;;;;;;23.20;99.90;;;;;;4919448;29;20393;-81
2021/06/24 12:48:54;;;;;;;;;;;23.90;99.90;;;;;;4945820;29;19918;-83
2021/06/24 12:52:33;;;;;;;;;;;24.40;99.90;;;;;;4924525;29;19959;-83
2021/06/24 13:48:40;;;;;;;;;;;25.90;99.30;;;;;;4901631;29;19927;-83
2021/06/24 13:51:08;;;;;;;;;;;25.80;99.80;;;;;;4918976;29;19931;-80
2021/06/24 13:53:37;;;;;;;;;;;25.80;99.90;;;;;;4921516;29;20391;-82
2021/06/24 13:56:04;;;;;;;;;;;25.80;99.90;;;;;;4905149;29;20439;-81
2021/06/24 13:58:32;;;;;;;;;;;25.80;99.80;;;;;;4902615;29;20022;-82
2021/06/24 14:01:06;;;;;;;;;;;25.60;99.90;;;;;;4890641;29;19928;-81
2021/06/24 14:03:34;;;;;;;;;;;25.90;99.90;;;;;;4905528;29;19928;-80
2021/06/24 14:06:03;;;;;;;;;;;25.90;99.90;;;;;;4887058;29;19955;-81
2021/06/24 14:08:30;;;;;;;;;;;25.60;99.90;;;;;;4901693;29;19927;-81
2021/06/24 14:10:57;;;;;;;;;;;25.70;99.90;;;;;;4919522;29;19934;-84
2021/06/24 14:13:26;;;;;;;;;;;25.70;99.90;;;;;;4902018;29;19966;-82
2021/06/24 14:15:58;;;;;;;;;;;25.50;98.20;;;;;;4886230;29;20310;-82
2021/06/24 14:18:25;;;;;;;;;;;25.50;99.40;;;;;;4904052;29;19927;-81
2021/06/24 14:20:52;;;;;;;;;;;25.70;99.90;;;;;;4921674;29;19927;-81
2021/06/24 14:23:19;;;;;;;;;;;26.00;98.50;;;;;;4922490;29;20442;-81
2021/06/24 14:31:36;;;;;;;;;;;26.70;99.10;;;;;;4829119;29;20322;-81
2021/06/24 14:34:08;;;;;;;;;;;26.90;96.70;;;;;;4825337;29;19964;-81
2021/06/24 14:36:35;;;;;;;;;;;27.00;96.60;;;;;;4808569;29;19990;-78
2021/06/24 14:39:03;;;;;;;;;;;27.00;96.50;;;;;;4805309;29;19968;-78
2021/06/24 14:41:31;;;;;;;;;;;27.20;97.20;;;;;;4803863;29;19973;-79
2021/06/24 14:43:58;;;;;;;;;;;27.40;95.10;;;;;;4803531;29;19930;-79
2021/06/24 14:46:25;;;;;;;;;;;27.40;95.10;;;;;;4808903;29;20025;-80
2021/06/24 14:48:52;;;;;;;;;;;27.30;92.50;;;;;;4816174;29;19930;-79
2021/06/24 14:51:19;;;;;;;;;;;27.20;92.40;;;;;;4802951;29;19953;-79
2021/06/24 14:53:47;;;;;;;;;;;26.90;91.10;;;;;;4803906;29;19930;-79
2021/06/24 14:56:18;;;;;;;;;;;26.80;91.50;;;;;;4792779;29;19929;-79
2021/06/24 14:58:51;;;;;;;;;;;27.00;92.60;;;;;;4823724;29;19960;-81
2021/06/24 15:01:23;;;;;;;;;;;27.00;91.70;;;;;;4820282;29;19929;-82
2021/06/24 15:08:07;;;;;;;;;;;27.10;90.90;;;;;;4807490;30;19936;-81
2021/06/24 15:15:28;;;;;;;;;;;27.00;82.00;;;;;;4849569;29;19987;-81
2021/06/24 15:18:46;;;;;;;;;;;26.90;79.80;;;;;;4841845;29;19997;-80
2021/06/24 15:22:23;;;;;;;;;;;26.90;80.20;;;;;;4833134;29;19935;-81
2021/06/24 16:34:22;;;;;;;;;;;25.10;91.30;;;;;;3794509;23;20261;-85
2021/06/24 16:36:49;;;;;;;;;;;24.90;91.90;;;;;;4842475;29;19928;-80
2021/06/24 16:39:16;;;;;;;;;;;24.80;92.70;;;;;;4844685;29;19976;-80
2021/06/24 16:41:44;;;;;;;;;;;24.60;94.40;;;;;;4829615;29;19928;-80
2021/06/24 16:47:21;;;;;;;;;;;24.40;95.30;;;;;;4849318;23;19929;-80
2021/06/24 16:49:49;;;;;;;;;;;24.70;95.60;;;;;;4844734;29;19929;-79
2021/06/24 16:52:16;;;;;;;;;;;24.70;95.90;;;;;;4843609;29;20538;-79
2021/06/24 16:57:38;;;;;;;;;;;24.40;98.80;;;;;;4984996;23;19928;-78
2021/06/24 17:00:07;;;;;;;;;;;24.10;98.20;;;;;;4843117;29;19932;-75
2021/06/24 17:02:38;;;;;;;;;;;23.80;97.80;;;;;;4827949;29;20031;-78
2021/06/24 17:05:08;;;;;;;;;;;23.80;98.90;;;;;;4842644;29;19939;-78
2021/06/24 17:07:35;;;;;;;;;;;23.80;99.70;;;;;;4830271;29;19928;-79
2021/06/24 17:10:03;;;;;;;;;;;23.80;99.90;;;;;;4830713;29;19953;-79
2021/06/24 17:12:30;;;;;;;;;;;23.60;99.90;;;;;;4831209;29;19964;-78
2021/06/24 17:14:57;;;;;;;;;;;23.70;99.90;;;;;;4830120;29;19929;-79
2021/06/24 17:17:29;;;;;;;;;;;23.80;99.90;;;;;;4830866;29;19928;-79
2021/06/24 17:19:59;;;;;;;;;;;23.60;99.90;;;;;;4829902;29;19936;-78
2021/06/24 17:22:27;;;;;;;;;;;23.60;99.90;;;;;;4844316;29;20027;-79
2021/06/24 17:24:54;;;;;;;;;;;23.60;99.90;;;;;;4829724;29;19966;-79
2021/06/24 17:27:21;;;;;;;;;;;23.60;99.90;;;;;;4844726;29;19939;-78
2021/06/24 17:29:48;;;;;;;;;;;23.60;99.90;;;;;;4829417;29;19935;-78
2021/06/24 17:32:21;;;;;;;;;;;23.60;99.90;;;;;;4831685;29;19932;-78
2021/06/24 17:34:48;;;;;;;;;;;23.60;99.90;;;;;;4832633;29;20011;-78
2021/06/24 17:37:15;;;;;;;;;;;23.50;99.90;;;;;;4848201;29;19956;-78